»·PEaware :: BEE185 KDEN-KEGE

BEE185 :: KDEN-KEGE

FLIGHT INFORMATION

Flight Status: Arrived
Operator:
Flybe
More flights by this operator :: More flights under this callsign
Pilot: Andrew N. (12823)
Aircraft: BEECH AIRCRAFT BEECH AIRLINER
(B190)
More flights by this aircraft type
Origin: KDEN Denver Intl
United States
Destination: KEGE Eagle Co Regl
United States
More flights between these airports :: More routes between these airports
Route: +DENVR9 DVV RLG
File this flight plan on PilotEdge
Remarks:
Altitude:
(Current/Filed)
22,000ft
Speed:
(Current/Filed)
220kts
Departed: 10-Jan-17 08:14 AM
Arrived: 10-Jan-17 08:54 AM
Distance/Time
Traveled:
105nm/0:40
Distance/Time
To Go:
Arrived

Flight Plot

Page will automatically refresh every two minutes.

Flight plan parsing failed; only flown route is shown


Map Options




Map Legend


Flown Route
Filed Route
Departure Airport
Arrival Airport
Navaid (VOR, NDB)
Fix

Horizontal Profiles

Position Reports

Time Latitude Longitude Heading Altitude Ground
Speed
10-Jan-17 07:51 39.863759 -104.671950 284 5322ft 2kts
10-Jan-17 07:52 39.863922 -104.672417 297 5322ft 0kts
10-Jan-17 07:53 39.863922 -104.672417 297 5322ft 0kts
10-Jan-17 07:54 39.863922 -104.672417 297 5322ft 0kts
10-Jan-17 07:55 39.863922 -104.672417 297 5322ft 0kts
10-Jan-17 08:00 39.864700 -104.678803 274 5322ft 7kts
10-Jan-17 08:01 39.864249 -104.682208 244 5322ft 4kts
10-Jan-17 08:02 39.861716 -104.683818 179 5322ft 14kts
10-Jan-17 08:03 39.858175 -104.683852 180 5322ft 13kts
10-Jan-17 08:04 39.854047 -104.683898 181 5322ft 24kts
10-Jan-17 08:05 39.849797 -104.683924 182 5322ft 12kts
10-Jan-17 08:06 39.845892 -104.683971 181 5322ft 25kts
10-Jan-17 08:07 39.841680 -104.684066 182 5322ft 0kts
10-Jan-17 08:08 39.841680 -104.684066 182 5322ft 0kts
10-Jan-17 08:09 39.841680 -104.684066 182 5322ft 0kts
10-Jan-17 08:10 39.841680 -104.684066 182 5322ft 0kts
10-Jan-17 08:11 39.841680 -104.684066 182 5322ft 0kts
10-Jan-17 08:12 39.841680 -104.684066 182 5322ft 0kts
10-Jan-17 08:13 39.840998 -104.684100 198 5322ft 6kts
10-Jan-17 08:14 39.840678 -104.687560 269 5322ft 72kts
10-Jan-17 08:15 39.841875 -104.735421 269 6989ft 156kts
10-Jan-17 08:16 39.845071 -104.792155 270 9773ft 161kts
10-Jan-17 08:17 39.849338 -104.845550 274 12446ft 147kts
10-Jan-17 08:18 39.854444 -104.890769 270 14810ft 124kts
10-Jan-17 08:19 39.857757 -104.923834 270 16322ft 123kts
10-Jan-17 08:20 39.861021 -104.956377 270 17614ft 122kts
10-Jan-17 08:21 39.864322 -104.989375 270 18495ft 140kts
10-Jan-17 08:22 39.868258 -105.028455 270 19302ft 148kts
10-Jan-17 08:23 39.869542 -105.040820 270 19634ft 146kts
10-Jan-17 08:24 39.870009 -105.045300 270 19753ft 145kts
10-Jan-17 08:25 39.875034 -105.094043 268 21111ft 131kts
10-Jan-17 08:26 39.879611 -105.140984 268 21876ft 148kts
10-Jan-17 08:27 39.881812 -105.164208 269 21882ft 167kts
10-Jan-17 08:28 39.882039 -105.166542 269 21882ft 169kts
10-Jan-17 08:29 39.888669 -105.231446 268 21875ft 196kts
10-Jan-17 08:30 39.895701 -105.303340 268 21871ft 207kts
10-Jan-17 08:31 39.903105 -105.378617 269 21869ft 212kts
10-Jan-17 08:32 39.911199 -105.462809 271 20373ft 250kts
10-Jan-17 08:33 39.920039 -105.553473 272 18785ft 258kts
10-Jan-17 08:34 39.928669 -105.646195 276 17182ft 266kts
10-Jan-17 08:35 39.938267 -105.740880 277 16882ft 265kts
10-Jan-17 08:36 39.947387 -105.835669 276 16878ft 262kts
10-Jan-17 08:37 39.956157 -105.929038 276 16882ft 262kts
10-Jan-17 08:38 39.964852 -106.022635 276 16877ft 261kts
10-Jan-17 08:39 39.973415 -106.115892 276 16889ft 261kts
10-Jan-17 08:40 39.981923 -106.209570 277 16845ft 264kts
10-Jan-17 08:41 39.991138 -106.308284 276 15227ft 271kts
10-Jan-17 08:42 39.999118 -106.398757 273 13966ft 226kts
10-Jan-17 08:43 39.969807 -106.454062 205 13948ft 217kts
10-Jan-17 08:44 39.912499 -106.480428 201 13942ft 225kts
10-Jan-17 08:45 39.852667 -106.505700 201 13941ft 229kts
10-Jan-17 08:46 39.792361 -106.531049 201 13868ft 233kts
10-Jan-17 08:47 39.732123 -106.556445 201 12852ft 218kts
10-Jan-17 08:48 39.689521 -106.592292 258 12592ft 187kts
10-Jan-17 08:49 39.679638 -106.660847 259 11399ft 194kts
10-Jan-17 08:50 39.670090 -106.726426 259 10028ft 180kts
10-Jan-17 08:51 39.660402 -106.787947 257 8790ft 170kts
10-Jan-17 08:52 39.651628 -106.846446 258 7623ft 161kts
10-Jan-17 08:53 39.644425 -106.900972 261 6610ft 140kts
10-Jan-17 08:54 39.641627 -106.922739 170 6473ft 9kts
10-Jan-17 08:55 39.642028 -106.913975 80 6501ft 13kts
10-Jan-17 08:56 39.641101 -106.915084 262 6500ft 35kts
10-Jan-17 08:57 39.640409 -106.916144 169 6499ft 0kts
10-Jan-17 08:58 39.640409 -106.916144 169 6499ft 0kts
10-Jan-17 08:59 39.640409 -106.916144 169 6499ft 0kts
10-Jan-17 09:00 39.640409 -106.916144 169 6499ft 0kts

Navigation Log

Ident Type
Flight plan parsing failed, navigation log unavailable